Time;durP1;ratioP1;P1;durP2;ratioP2;P2;SDS_P1;SDS_P2;PMS_P1;PMS_P2;Temp;Humidity;BMP_temperature;BMP_pressure;BME280_temperature;BME280_humidity;BME280_pressure;Samples;Min_cycle;Max_cycle;Signal;HPM_P1;HPM_P2
2022/10/22 00:01:42;;;;;;;3.87;2.50;;;15.00;99.90;;;;;;5034319;28;20216;-83
2022/10/22 00:04:08;;;;;;;2.77;1.90;;;15.00;99.90;;;;;;5001660;28;20206;-83
2022/10/22 00:06:34;;;;;;;3.60;2.10;;;14.90;99.90;;;;;;5001858;28;20285;-83
2022/10/22 00:08:59;;;;;;;3.37;2.00;;;14.90;99.90;;;;;;5052241;28;20253;-84
2022/10/22 00:11:25;;;;;;;3.17;2.87;;;14.90;99.90;;;;;;5017260;28;20213;-82
2022/10/22 00:13:51;;;;;;;3.23;2.47;;;14.90;99.90;;;;;;5020676;28;20174;-84
2022/10/22 00:16:16;;;;;;;5.63;2.37;;;14.80;99.90;;;;;;5032267;28;20203;-83
2022/10/22 00:18:42;;;;;;;4.40;2.87;;;14.70;99.90;;;;;;5001304;28;20680;-83
2022/10/22 00:21:08;;;;;;;3.97;2.30;;;14.70;99.90;;;;;;5012386;28;20185;-84
2022/10/22 00:23:33;;;;;;;3.13;2.60;;;14.70;99.90;;;;;;5037758;28;20196;-83
2022/10/22 00:25:59;;;;;;;5.03;2.73;;;14.80;99.90;;;;;;5038026;28;20225;-83
2022/10/22 00:28:25;;;;;;;3.93;2.43;;;14.80;99.90;;;;;;5021221;28;20186;-83
2022/10/22 00:30:58;;;;;;;3.40;2.53;;;14.90;99.90;;;;;;5021679;28;20197;-84
2022/10/22 00:33:24;;;;;;;2.40;2.17;;;14.90;99.90;;;;;;5038303;28;20174;-83
2022/10/22 00:35:50;;;;;;;4.50;2.90;;;14.90;99.90;;;;;;5038108;28;20515;-83
2022/10/22 00:38:16;;;;;;;6.53;2.67;;;14.90;99.90;;;;;;5004628;28;20447;-82
2022/10/22 00:40:42;;;;;;;4.67;2.90;;;14.90;99.90;;;;;;4988313;28;20186;-84
2022/10/22 00:43:14;;;;;;;4.67;2.70;;;14.80;99.90;;;;;;5037186;28;20462;-83
2022/10/22 00:45:41;;;;;;;7.70;3.47;;;14.80;99.90;;;;;;5037924;28;20239;-84
2022/10/22 00:48:24;;;;;;;5.87;3.20;;;14.90;99.90;;;;;;5037939;28;20423;-83
2022/10/22 00:50:56;;;;;;;5.33;3.90;;;14.90;99.90;;;;;;5023276;28;21181;-82
2022/10/22 00:53:28;;;;;;;4.20;2.73;;;14.90;99.90;;;;;;5038638;28;20405;-83
2022/10/22 00:55:54;;;;;;;6.03;2.90;;;14.90;99.90;;;;;;5005609;28;20435;-83
2022/10/22 00:58:25;;;;;;;5.67;4.40;;;15.00;99.90;;;;;;5056476;28;20416;-84
2022/10/22 01:00:50;;;;;;;5.20;2.80;;;14.90;99.90;;;;;;5021842;28;20781;-84
2022/10/22 01:03:16;;;;;;;3.70;3.00;;;15.00;99.90;;;;;;5021485;28;20419;-84
2022/10/22 01:06:03;;;;;;;6.80;3.30;;;14.90;99.90;;;;;;5037294;28;20296;-83
2022/10/22 01:08:35;;;;;;;5.50;2.97;;;14.90;99.90;;;;;;5021646;28;20201;-83
2022/10/22 01:11:22;;;;;;;4.03;3.13;;;14.90;99.90;;;;;;5055778;28;20565;-82
2022/10/22 01:14:08;;;;;;;5.07;3.40;;;14.90;99.90;;;;;;5056103;28;20432;-82
2022/10/22 01:16:53;;;;;;;4.60;3.13;;;14.90;99.90;;;;;;5038111;28;20856;-81
2022/10/22 01:19:28;;;;;;;4.00;3.00;;;14.90;99.90;;;;;;5021203;28;20455;-82
2022/10/22 01:22:18;;;;;;;3.73;2.67;;;15.00;99.90;;;;;;5038348;28;20419;-82
2022/10/22 01:24:57;;;;;;;7.70;4.67;;;15.00;99.90;;;;;;5050459;28;20880;-83
2022/10/22 01:27:36;;;;;;;5.17;3.07;;;15.00;99.90;;;;;;5039625;28;20522;-83
2022/10/22 01:30:07;;;;;;;5.03;3.30;;;15.00;99.90;;;;;;5056451;28;20408;-82
2022/10/22 01:32:40;;;;;;;8.10;3.40;;;14.90;99.90;;;;;;5055481;28;20968;-82
2022/10/22 01:35:10;;;;;;;4.30;3.10;;;14.90;99.90;;;;;;5055293;28;20440;-82
2022/10/22 01:37:45;;;;;;;6.03;3.57;;;15.00;99.90;;;;;;5038696;28;20462;-83
2022/10/22 01:40:15;;;;;;;7.10;3.87;;;14.90;99.90;;;;;;5021638;28;20424;-81
2022/10/22 01:42:41;;;;;;;4.20;3.00;;;14.90;99.90;;;;;;5037725;28;20420;-81
2022/10/22 01:45:11;;;;;;;5.10;3.53;;;14.90;99.90;;;;;;5054173;28;20432;-82
2022/10/22 01:47:46;;;;;;;6.03;3.30;;;14.90;99.90;;;;;;5037820;28;20438;-82
2022/10/22 01:50:20;;;;;;;3.40;2.87;;;14.90;99.90;;;;;;5055266;28;20807;-82
2022/10/22 01:52:55;;;;;;;3.70;3.30;;;14.80;99.90;;;;;;5036624;28;20420;-81
2022/10/22 01:55:35;;;;;;;3.30;3.00;;;14.80;99.90;;;;;;5053403;28;20455;-83
2022/10/22 01:58:38;;;;;;;5.00;3.70;;;14.90;99.90;;;;;;5053534;28;20422;-83
2022/10/22 02:01:31;;;;;;;3.87;2.87;;;14.80;99.90;;;;;;5012039;28;20429;-82
2022/10/22 02:04:11;;;;;;;5.80;2.90;;;14.80;99.90;;;;;;4999076;28;20409;-83
2022/10/22 02:06:39;;;;;;;3.37;2.90;;;14.80;99.90;;;;;;4999683;28;20762;-83
2022/10/22 02:09:07;;;;;;;4.03;2.80;;;14.90;99.90;;;;;;4999584;28;20416;-82
2022/10/22 02:11:33;;;;;;;8.57;3.23;;;14.90;99.90;;;;;;5016557;28;20500;-83
2022/10/22 02:14:02;;;;;;;4.53;2.97;;;14.90;99.90;;;;;;5016034;28;20474;-82
2022/10/22 02:16:42;;;;;;;4.97;3.37;;;14.90;99.90;;;;;;5016325;28;20413;-82
2022/10/22 02:19:38;;;;;;;5.13;3.17;;;14.90;99.90;;;;;;5014671;28;20402;-82
2022/10/22 02:22:04;;;;;;;3.20;2.90;;;14.90;99.90;;;;;;4979469;28;20432;-82
2022/10/22 02:24:30;;;;;;;3.73;3.03;;;14.90;99.90;;;;;;5050986;28;20471;-82
2022/10/22 02:27:15;;;;;;;6.50;3.30;;;14.90;99.90;;;;;;5052750;28;20416;-82
2022/10/22 02:29:51;;;;;;;4.80;3.40;;;14.80;99.90;;;;;;5052275;28;20432;-82
2022/10/22 02:32:21;;;;;;;6.70;3.40;;;14.90;99.90;;;;;;5045870;28;20429;-83
2022/10/22 02:34:49;;;;;;;3.33;3.03;;;14.90;99.90;;;;;;5010819;28;20432;-82
2022/10/22 02:37:16;;;;;;;5.63;3.50;;;14.90;99.90;;;;;;5035462;28;20413;-82
2022/10/22 02:39:43;;;;;;;5.20;3.67;;;14.90;99.90;;;;;;5019274;28;20471;-82
2022/10/22 02:42:11;;;;;;;4.80;3.30;;;14.90;99.90;;;;;;5002981;28;20423;-82
2022/10/22 02:44:36;;;;;;;5.23;3.40;;;14.80;99.90;;;;;;5019640;28;20516;-82
2022/10/22 02:47:02;;;;;;;9.80;4.17;;;14.80;99.90;;;;;;5053309;28;21067;-82
2022/10/22 02:49:28;;;;;;;8.57;3.70;;;14.70;99.90;;;;;;5069208;28;20826;-82
2022/10/22 02:51:54;;;;;;;9.23;3.23;;;14.80;99.90;;;;;;5034321;28;20456;-83
2022/10/22 02:54:20;;;;;;;3.63;3.00;;;14.70;99.90;;;;;;5019587;28;20578;-84
2022/10/22 02:56:45;;;;;;;4.10;3.70;;;14.70;99.90;;;;;;5021316;28;20193;-83
2022/10/22 02:59:11;;;;;;;4.13;3.20;;;14.70;99.90;;;;;;5022702;28;20273;-84
2022/10/22 03:01:37;;;;;;;7.60;3.33;;;14.70;99.90;;;;;;5037439;28;20835;-83
2022/10/22 03:04:03;;;;;;;4.27;3.20;;;14.70;99.90;;;;;;5012872;28;20177;-84
2022/10/22 03:06:28;;;;;;;4.30;3.80;;;14.70;99.90;;;;;;5020278;28;20524;-83
2022/10/22 03:08:54;;;;;;;6.83;3.40;;;14.70;99.90;;;;;;5017457;28;20440;-83
2022/10/22 03:11:20;;;;;;;4.00;3.20;;;14.80;99.90;;;;;;5033018;28;20237;-84
2022/10/22 03:13:45;;;;;;;7.63;3.57;;;14.80;99.90;;;;;;5017926;28;20185;-82
2022/10/22 03:16:11;;;;;;;6.47;2.87;;;14.80;99.90;;;;;;5009764;28;20274;-83
2022/10/22 03:18:36;;;;;;;4.37;2.93;;;14.80;99.90;;;;;;4999120;28;20864;-81
2022/10/22 03:21:11;;;;;;;4.20;3.07;;;14.80;99.90;;;;;;5026741;28;20210;-82
2022/10/22 03:23:39;;;;;;;3.33;3.03;;;14.80;99.90;;;;;;5019677;28;20665;-82
2022/10/22 03:26:06;;;;;;;7.33;3.33;;;14.90;99.90;;;;;;5035963;28;20432;-82
2022/10/22 03:28:32;;;;;;;4.53;3.60;;;14.80;99.90;;;;;;5054146;28;20416;-82
2022/10/22 03:30:58;;;;;;;6.13;3.40;;;14.90;99.90;;;;;;5019332;28;20517;-82
2022/10/22 03:33:24;;;;;;;6.20;3.77;;;14.80;99.90;;;;;;5004184;28;20476;-83
2022/10/22 03:35:49;;;;;;;5.70;3.43;;;14.80;99.90;;;;;;5020555;28;20208;-83
2022/10/22 03:38:15;;;;;;;10.63;3.23;;;14.80;99.90;;;;;;5036803;28;20178;-82
2022/10/22 03:40:42;;;;;;;5.10;3.40;;;14.80;99.90;;;;;;5022750;28;20707;-82
2022/10/22 03:43:08;;;;;;;3.23;2.93;;;14.80;99.90;;;;;;5022774;28;20186;-82
2022/10/22 03:45:34;;;;;;;5.50;4.00;;;14.80;99.90;;;;;;5036989;28;20428;-83
2022/10/22 03:47:59;;;;;;;9.73;4.07;;;14.80;99.90;;;;;;5036432;28;20784;-82
2022/10/22 03:50:25;;;;;;;6.43;4.00;;;14.80;99.90;;;;;;5038053;28;20210;-82
2022/10/22 03:52:52;;;;;;;10.33;3.97;;;14.80;99.90;;;;;;5037795;28;20185;-82
2022/10/22 03:55:18;;;;;;;10.73;4.33;;;14.90;99.90;;;;;;5021454;28;20202;-80
2022/10/22 03:57:43;;;;;;;4.70;3.87;;;14.90;99.90;;;;;;5020949;28;20423;-82
2022/10/22 04:00:09;;;;;;;7.50;4.30;;;14.90;99.90;;;;;;5021536;28;20195;-82
2022/10/22 04:02:35;;;;;;;5.00;3.83;;;14.90;99.90;;;;;;5038008;28;20657;-84
2022/10/22 04:05:00;;;;;;;4.23;3.70;;;14.90;99.90;;;;;;5038290;28;20436;-81
2022/10/22 04:07:26;;;;;;;4.80;4.40;;;14.90;99.90;;;;;;5005521;28;20186;-81
2022/10/22 04:09:52;;;;;;;5.20;3.80;;;15.00;99.90;;;;;;5021377;28;20185;-82
2022/10/22 04:12:17;;;;;;;5.97;4.97;;;15.00;99.90;;;;;;5021317;28;20212;-81
2022/10/22 04:14:43;;;;;;;6.30;3.80;;;15.00;99.90;;;;;;5021241;28;20229;-82
2022/10/22 04:17:08;;;;;;;8.00;4.40;;;15.00;99.90;;;;;;5022347;28;20713;-82
2022/10/22 04:19:34;;;;;;;4.07;3.77;;;14.90;99.90;;;;;;5005213;28;20180;-82
2022/10/22 04:22:00;;;;;;;4.73;3.80;;;15.00;99.90;;;;;;5021203;28;20184;-82
2022/10/22 04:24:26;;;;;;;6.20;4.20;;;14.90;99.90;;;;;;5020623;28;20264;-82
2022/10/22 04:26:55;;;;;;;9.10;4.80;;;15.00;99.90;;;;;;5020762;28;20181;-82
2022/10/22 04:29:20;;;;;;;6.53;4.30;;;14.90;99.90;;;;;;5004531;28;20178;-83
2022/10/22 04:31:46;;;;;;;7.40;5.30;;;15.00;99.90;;;;;;5020410;28;20982;-82
2022/10/22 04:34:11;;;;;;;7.27;4.40;;;14.90;99.90;;;;;;5020444;28;20210;-82
2022/10/22 04:36:37;;;;;;;6.80;4.10;;;14.90;99.90;;;;;;5054434;28;20178;-81
2022/10/22 04:39:04;;;;;;;6.40;4.20;;;14.90;99.90;;;;;;5020440;28;20174;-82
2022/10/22 04:41:32;;;;;;;7.10;4.77;;;14.90;99.90;;;;;;5020350;28;20555;-82
2022/10/22 04:43:59;;;;;;;7.37;5.33;;;14.80;99.90;;;;;;5020270;28;20455;-81
2022/10/22 04:46:27;;;;;;;7.03;4.40;;;14.80;99.90;;;;;;5054611;28;20417;-82
2022/10/22 04:48:52;;;;;;;5.73;4.50;;;14.90;99.90;;;;;;5054715;28;20415;-81
2022/10/22 04:51:20;;;;;;;7.67;5.10;;;14.90;99.90;;;;;;5036629;28;20459;-82
2022/10/22 04:53:46;;;;;;;4.53;3.83;;;14.80;99.90;;;;;;5003939;28;20736;-82
2022/10/22 04:56:20;;;;;;;6.87;4.90;;;14.80;99.90;;;;;;5054613;28;20840;-81
2022/10/22 04:58:52;;;;;;;6.50;4.97;;;14.90;99.90;;;;;;5036200;28;20506;-82
2022/10/22 05:01:24;;;;;;;5.80;4.20;;;15.00;99.90;;;;;;5036804;28;20507;-80
2022/10/22 05:03:51;;;;;;;9.73;4.53;;;14.90;99.90;;;;;;5036453;28;20412;-82
2022/10/22 05:06:19;;;;;;;6.93;4.17;;;14.80;99.90;;;;;;5020075;28;20435;-82
2022/10/22 05:08:45;;;;;;;5.50;3.93;;;14.80;99.90;;;;;;5020108;28;20486;-82
2022/10/22 05:11:20;;;;;;;8.83;4.87;;;14.80;99.90;;;;;;5036743;28;20448;-82
2022/10/22 05:13:46;;;;;;;6.00;3.97;;;14.80;99.90;;;;;;5036931;28;20408;-83
2022/10/22 05:16:12;;;;;;;4.03;3.73;;;14.80;99.90;;;;;;5020540;28;20497;-82
2022/10/22 05:18:40;;;;;;;5.00;4.33;;;14.80;99.90;;;;;;5036123;28;20408;-83
2022/10/22 05:21:12;;;;;;;8.83;4.50;;;14.70;99.90;;;;;;5019582;28;20420;-83
2022/10/22 05:23:38;;;;;;;9.23;4.33;;;14.80;99.90;;;;;;5018961;28;20811;-82
2022/10/22 05:26:05;;;;;;;7.50;4.17;;;14.80;99.90;;;;;;5018955;28;20479;-84
2022/10/22 05:28:32;;;;;;;5.40;4.47;;;14.80;99.90;;;;;;5036153;28;20505;-81
2022/10/22 05:30:58;;;;;;;5.70;4.40;;;14.80;99.90;;;;;;5019089;28;20509;-82
2022/10/22 05:33:25;;;;;;;5.73;4.40;;;14.80;99.90;;;;;;5036011;28;20400;-84
2022/10/22 05:35:51;;;;;;;6.40;4.57;;;14.70;99.90;;;;;;5035836;28;20428;-83
2022/10/22 05:38:17;;;;;;;7.43;4.80;;;14.70;99.90;;;;;;5035843;28;20984;-82
2022/10/22 05:40:44;;;;;;;8.03;4.40;;;14.70;99.90;;;;;;5018561;28;20264;-82
2022/10/22 05:43:10;;;;;;;6.10;5.50;;;14.80;99.90;;;;;;5019301;28;20935;-82
2022/10/22 05:45:40;;;;;;;5.23;4.73;;;14.80;99.90;;;;;;5053137;28;20881;-82
2022/10/22 05:48:06;;;;;;;5.17;4.40;;;14.80;99.90;;;;;;5003288;28;20413;-83
2022/10/22 05:50:36;;;;;;;8.50;4.37;;;14.70;99.90;;;;;;5018065;28;20887;-81
2022/10/22 05:53:03;;;;;;;6.67;4.17;;;14.70;99.90;;;;;;5035419;28;20427;-82
2022/10/22 05:55:29;;;;;;;5.33;4.63;;;14.70;99.90;;;;;;5018848;28;20424;-82
2022/10/22 05:57:54;;;;;;;5.27;4.10;;;14.60;99.90;;;;;;5018734;28;20408;-82
2022/10/22 06:00:20;;;;;;;6.00;4.10;;;14.60;99.90;;;;;;5035516;28;20188;-82
2022/10/22 06:02:50;;;;;;;6.57;4.40;;;14.60;99.90;;;;;;5018242;28;20272;-82
2022/10/22 06:05:15;;;;;;;5.00;4.00;;;14.50;99.90;;;;;;5035797;28;20221;-82
2022/10/22 06:07:41;;;;;;;5.17;4.60;;;14.50;99.90;;;;;;5019420;28;20925;-81
2022/10/22 06:10:13;;;;;;;6.27;4.30;;;14.50;99.90;;;;;;5001665;28;20209;-82
2022/10/22 06:12:39;;;;;;;5.27;4.20;;;14.60;99.90;;;;;;5018799;28;20880;-83
2022/10/22 06:15:05;;;;;;;6.27;4.20;;;14.60;99.90;;;;;;5019416;28;20466;-82
2022/10/22 06:17:31;;;;;;;6.90;4.40;;;14.50;99.90;;;;;;5053330;28;20170;-82
2022/10/22 06:19:56;;;;;;;7.70;4.20;;;14.50;99.90;;;;;;5018373;28;20420;-83
2022/10/22 06:22:22;;;;;;;5.63;4.40;;;14.40;99.90;;;;;;5034618;28;20189;-81
2022/10/22 06:24:47;;;;;;;4.57;4.10;;;14.40;99.90;;;;;;4985856;28;20598;-82
2022/10/22 06:27:13;;;;;;;8.10;5.60;;;14.30;99.90;;;;;;5035047;28;20178;-81
2022/10/22 06:29:39;;;;;;;8.83;4.90;;;14.40;99.90;;;;;;5018515;28;20234;-83
2022/10/22 06:32:04;;;;;;;6.30;4.20;;;14.30;99.90;;;;;;5017899;28;20244;-82
2022/10/22 06:34:30;;;;;;;6.23;5.20;;;14.30;99.90;;;;;;5018029;28;20256;-81
2022/10/22 06:36:56;;;;;;;5.40;4.90;;;14.40;99.90;;;;;;5001799;28;20186;-82
2022/10/22 06:39:21;;;;;;;7.90;5.50;;;14.40;99.90;;;;;;5034537;28;20178;-81
2022/10/22 06:41:47;;;;;;;6.27;4.90;;;14.50;99.90;;;;;;5034882;28;20257;-82
2022/10/22 06:44:14;;;;;;;7.73;4.73;;;14.60;99.90;;;;;;4985865;28;20219;-82
2022/10/22 06:46:40;;;;;;;9.30;6.13;;;14.60;99.90;;;;;;5001809;28;20331;-80
2022/10/22 06:49:06;;;;;;;11.77;6.50;;;14.60;99.90;;;;;;5034900;28;20464;-82
2022/10/22 06:51:32;;;;;;;6.90;4.77;;;14.60;99.90;;;;;;5052124;28;20456;-82
2022/10/22 06:53:57;;;;;;;8.33;5.67;;;14.60;99.90;;;;;;5017937;28;20268;-81
2022/10/22 06:56:25;;;;;;;7.93;4.70;;;14.70;99.90;;;;;;5034387;28;20270;-82
2022/10/22 06:58:53;;;;;;;4.63;4.23;;;14.80;99.90;;;;;;5034613;28;20180;-83
2022/10/22 07:01:25;;;;;;;6.00;5.33;;;14.90;99.90;;;;;;5034366;28;20424;-82
2022/10/22 07:03:52;;;;;;;9.00;5.37;;;15.00;99.90;;;;;;5034023;28;20835;-82
2022/10/22 07:06:19;;;;;;;8.20;4.73;;;15.10;99.90;;;;;;5017997;28;20848;-81
2022/10/22 07:08:44;;;;;;;4.53;3.93;;;15.20;99.90;;;;;;5017191;28;20427;-82
2022/10/22 07:11:20;;;;;;;8.80;4.40;;;15.30;99.90;;;;;;5017680;28;20459;-82
2022/10/22 07:13:46;;;;;;;5.27;3.80;;;15.30;99.90;;;;;;5033912;28;20184;-81
2022/10/22 07:16:13;;;;;;;5.07;4.10;;;15.40;99.90;;;;;;5034014;28;20435;-82
2022/10/22 07:18:39;;;;;;;8.03;4.07;;;15.40;99.90;;;;;;5033902;28;20498;-82
2022/10/22 07:21:06;;;;;;;7.33;4.00;;;15.30;99.90;;;;;;5018637;28;20481;-82
2022/10/22 07:23:31;;;;;;;6.70;3.90;;;15.40;99.90;;;;;;5022088;28;20949;-81
2022/10/22 07:25:57;;;;;;;10.47;4.00;;;15.30;99.90;;;;;;5022055;28;20509;-82
2022/10/22 07:28:23;;;;;;;4.07;3.67;;;15.40;99.90;;;;;;5022069;28;20189;-82
2022/10/22 07:30:49;;;;;;;7.23;4.20;;;15.50;99.90;;;;;;5056078;28;20463;-83
2022/10/22 07:33:15;;;;;;;8.10;3.60;;;15.70;99.90;;;;;;5022309;28;20244;-81
2022/10/22 07:35:41;;;;;;;5.63;3.30;;;15.90;99.90;;;;;;5021831;28;20193;-82
2022/10/22 07:38:07;;;;;;;3.83;3.30;;;16.10;99.90;;;;;;5020980;28;20186;-81
2022/10/22 07:40:34;;;;;;;3.77;3.13;;;16.30;99.90;;;;;;5036954;28;20420;-82
2022/10/22 07:43:00;;;;;;;4.10;3.67;;;16.50;99.90;;;;;;5021080;28;20489;-82
2022/10/22 07:45:25;;;;;;;6.00;3.53;;;16.70;99.90;;;;;;5037497;28;20971;-81
2022/10/22 07:47:51;;;;;;;4.87;3.40;;;16.80;99.90;;;;;;5020848;28;20424;-81
2022/10/22 07:50:17;;;;;;;5.47;3.57;;;17.00;99.90;;;;;;5020753;28;20190;-81
2022/10/22 07:52:43;;;;;;;5.83;2.93;;;17.20;99.90;;;;;;5020654;28;20229;-81
2022/10/22 07:55:08;;;;;;;6.30;3.30;;;17.40;99.90;;;;;;5020767;28;20311;-82
2022/10/22 07:57:36;;;;;;;3.23;2.53;;;17.60;99.90;;;;;;5020952;28;20185;-82
2022/10/22 08:00:03;;;;;;;4.23;2.80;;;17.80;99.90;;;;;;5020582;28;20623;-82
2022/10/22 08:02:29;;;;;;;5.80;3.00;;;18.00;99.90;;;;;;5037186;28;20833;-82
2022/10/22 08:04:55;;;;;;;4.67;3.00;;;18.20;99.90;;;;;;4988085;28;20436;-82
2022/10/22 08:07:22;;;;;;;5.77;3.13;;;18.40;99.90;;;;;;5036965;28;20182;-82
2022/10/22 08:09:48;;;;;;;4.57;3.23;;;18.50;99.90;;;;;;5036987;28;20408;-81
2022/10/22 08:12:14;;;;;;;4.77;3.17;;;18.50;99.90;;;;;;5054788;28;20459;-82
2022/10/22 08:14:39;;;;;;;7.30;3.43;;;18.40;99.90;;;;;;5020433;28;20222;-82
2022/10/22 08:17:05;;;;;;;5.13;2.80;;;18.40;99.90;;;;;;4988179;28;20182;-82
2022/10/22 08:19:31;;;;;;;3.83;2.60;;;18.50;99.90;;;;;;5055207;28;20185;-82
2022/10/22 08:21:58;;;;;;;6.13;2.73;;;18.40;99.90;;;;;;5037307;28;20193;-82
2022/10/22 08:24:25;;;;;;;9.60;2.70;;;18.30;99.90;;;;;;5020744;28;20460;-82
2022/10/22 08:26:53;;;;;;;2.40;2.13;;;18.10;99.90;;;;;;5020913;28;20917;-82
2022/10/22 08:29:21;;;;;;;7.93;3.00;;;18.00;99.90;;;;;;5019947;28;20829;-83
2022/10/22 08:31:47;;;;;;;8.47;2.60;;;17.90;99.90;;;;;;5055251;28;21020;-83
2022/10/22 08:34:13;;;;;;;7.33;2.87;;;17.90;99.90;;;;;;5019458;28;20408;-82
2022/10/22 08:36:39;;;;;;;4.83;2.60;;;17.80;99.90;;;;;;5020527;28;20447;-82
2022/10/22 08:39:04;;;;;;;2.47;2.27;;;17.70;99.90;;;;;;5020277;28;20205;-82
2022/10/22 08:41:38;;;;;;;7.20;3.13;;;17.60;99.90;;;;;;5020050;28;20190;-83
2022/10/22 08:44:37;;;;;;;4.43;2.13;;;17.50;99.90;;;;;;5020614;28;20186;-81
2022/10/22 08:47:17;;;;;;;4.87;2.00;;;17.30;99.90;;;;;;5036528;28;20455;-81
2022/10/22 08:49:44;;;;;;;3.60;2.13;;;17.30;99.90;;;;;;5020377;28;20502;-82
2022/10/22 08:52:14;;;;;;;9.50;2.63;;;17.20;99.90;;;;;;5004605;28;20805;-83
2022/10/22 08:54:51;;;;;;;5.00;3.37;;;17.10;99.90;;;;;;5021478;28;20436;-82
2022/10/22 08:57:41;;;;;;;6.20;2.57;;;17.10;99.90;;;;;;5037620;28;20931;-82
2022/10/22 09:00:31;;;;;;;4.93;2.40;;;17.00;99.90;;;;;;5055076;28;20409;-82
2022/10/22 09:03:26;;;;;;;7.60;2.73;;;17.00;99.90;;;;;;5019833;28;20412;-81
2022/10/22 09:06:00;;;;;;;5.20;2.10;;;17.00;99.90;;;;;;5019148;28;20432;-82
2022/10/22 09:08:26;;;;;;;4.70;2.53;;;17.00;99.90;;;;;;5036115;28;20952;-82
2022/10/22 09:11:06;;;;;;;5.13;2.47;;;17.00;99.90;;;;;;5019813;28;20483;-82
2022/10/22 09:13:31;;;;;;;7.00;2.70;;;16.90;99.90;;;;;;5018960;28;20189;-81
2022/10/22 09:16:17;;;;;;;7.40;2.57;;;16.90;99.90;;;;;;5036001;28;20428;-82
2022/10/22 09:19:17;;;;;;;5.17;2.00;;;16.80;99.90;;;;;;5035465;28;20190;-80
2022/10/22 09:21:52;;;;;;;3.57;2.20;;;16.80;99.90;;;;;;5054433;28;20432;-81
2022/10/22 09:24:36;;;;;;;4.60;2.43;;;16.80;99.90;;;;;;5035424;28;20502;-81
2022/10/22 09:27:10;;;;;;;7.80;2.40;;;16.80;99.90;;;;;;5019006;28;20424;-82
2022/10/22 09:29:36;;;;;;;5.60;2.67;;;16.80;99.90;;;;;;5035656;28;20446;-82
2022/10/22 09:32:02;;;;;;;2.70;2.20;;;16.80;99.90;;;;;;5035882;28;20705;-82
2022/10/22 09:34:29;;;;;;;6.83;2.50;;;16.80;99.90;;;;;;5019242;28;20448;-83
2022/10/22 09:37:03;;;;;;;3.60;2.20;;;16.80;99.90;;;;;;5035962;28;20182;-81
2022/10/22 09:39:38;;;;;;;6.87;2.63;;;16.80;99.90;;;;;;5035931;28;20501;-82
2022/10/22 09:42:05;;;;;;;7.00;2.40;;;16.80;99.90;;;;;;5019712;28;20967;-82
2022/10/22 09:44:36;;;;;;;5.10;2.60;;;16.90;99.90;;;;;;5018743;28;20590;-81
2022/10/22 09:47:33;;;;;;;5.13;3.00;;;17.00;99.90;;;;;;5035527;28;20432;-83
2022/10/22 09:50:13;;;;;;;4.43;2.20;;;17.10;99.90;;;;;;5016320;28;20929;-82
2022/10/22 09:52:39;;;;;;;6.03;2.47;;;17.10;99.90;;;;;;5019506;28;20413;-81
2022/10/22 09:55:17;;;;;;;4.47;2.30;;;17.10;99.90;;;;;;5036381;28;20429;-81
2022/10/22 09:57:51;;;;;;;4.07;2.67;;;17.10;99.90;;;;;;5035455;28;20781;-83
2022/10/22 10:00:18;;;;;;;4.83;2.50;;;17.10;99.90;;;;;;5035907;28;20487;-82
2022/10/22 10:02:43;;;;;;;5.40;2.77;;;17.10;99.90;;;;;;5018295;28;20447;-82
2022/10/22 10:05:24;;;;;;;5.97;2.70;;;17.10;99.90;;;;;;5019268;28;20467;-82
2022/10/22 10:07:58;;;;;;;6.20;2.83;;;17.10;99.90;;;;;;5143863;27;20303;-40
2022/10/22 10:10:55;;;;;;;4.73;2.40;;;17.10;99.90;;;;;;5128027;28;20405;-38
2022/10/22 10:13:37;;;;;;;5.20;2.50;;;17.00;99.90;;;;;;5128093;28;20389;-37
2022/10/22 10:16:05;;;;;;;4.07;2.47;;;17.00;99.90;;;;;;5126925;28;20435;-37
2022/10/22 10:19:05;;;;;;;4.10;1.90;;;16.90;99.90;;;;;;5127595;28;20416;-37
2022/10/22 10:21:53;;;;;;;5.33;1.67;;;16.90;99.90;;;;;;5126867;27;20503;-36
2022/10/22 10:24:28;;;;;;;5.43;2.27;;;16.90;99.90;;;;;;5126649;28;20405;-38
2022/10/22 10:27:04;;;;;;;5.53;2.43;;;16.90;99.90;;;;;;5128060;28;20944;-37
2022/10/22 10:29:42;;;;;;;7.73;2.53;;;16.80;99.90;;;;;;5127422;28;20412;-37
2022/10/22 10:32:26;;;;;;;4.13;2.27;;;16.70;99.90;;;;;;5127850;27;20412;-39
2022/10/22 10:35:16;;;;;;;5.50;2.20;;;16.80;99.90;;;;;;5126382;28;20393;-37
2022/10/22 10:38:03;;;;;;;5.53;2.17;;;16.70;99.90;;;;;;5127815;28;20401;-37
2022/10/22 10:40:50;;;;;;;4.07;2.13;;;16.80;99.90;;;;;;5127248;28;20408;-37
2022/10/22 10:43:45;;;;;;;4.90;2.27;;;16.70;99.90;;;;;;5127349;27;20507;-38
2022/10/22 10:46:23;;;;;;;2.63;1.83;;;16.70;99.90;;;;;;5127520;28;20863;-37
2022/10/22 10:48:59;;;;;;;5.37;1.90;;;16.70;99.90;;;;;;5127330;28;20400;-37
2022/10/22 10:51:48;;;;;;;4.03;1.90;;;16.70;99.90;;;;;;5109114;28;20401;-38
2022/10/22 10:54:26;;;;;;;5.47;2.03;;;16.70;99.90;;;;;;5127099;28;20735;-37
2022/10/22 10:57:30;;;;;;;3.77;2.07;;;16.70;99.90;;;;;;5125823;28;20419;-38
2022/10/22 11:00:05;;;;;;;6.73;2.50;;;16.70;99.90;;;;;;5108347;27;20507;-37
2022/10/22 11:02:58;;;;;;;5.80;2.23;;;16.80;99.90;;;;;;5127208;28;20492;-38
2022/10/22 11:05:53;;;;;;;2.93;1.70;;;16.80;99.90;;;;;;5126150;28;20416;-37
2022/10/22 11:08:27;;;;;;;8.30;2.30;;;16.90;99.90;;;;;;5127041;27;20417;-37
2022/10/22 11:11:07;;;;;;;4.80;1.83;;;16.90;99.90;;;;;;5127353;28;20548;-37
2022/10/22 11:13:40;;;;;;;4.73;2.00;;;16.90;99.90;;;;;;5126830;28;21027;-37
2022/10/22 11:16:20;;;;;;;4.03;1.90;;;16.90;99.90;;;;;;5127141;27;20412;-37
2022/10/22 11:18:54;;;;;;;8.20;2.67;;;16.90;99.90;;;;;;5114464;28;20409;-37
2022/10/22 11:21:51;;;;;;;8.80;2.30;;;16.90;99.90;;;;;;5111908;28;20408;-37
2022/10/22 11:24:39;;;;;;;3.57;1.57;;;16.90;99.90;;;;;;5104257;28;20585;-37
2022/10/22 11:27:46;;;;;;;7.70;1.60;;;16.90;99.90;;;;;;5112921;28;20993;-37
2022/10/22 11:30:15;;;;;;;4.33;1.50;;;16.90;99.90;;;;;;5088620;28;20786;-37
2022/10/22 11:32:44;;;;;;;2.97;1.40;;;16.90;99.90;;;;;;5112886;28;20406;-37
2022/10/22 11:35:44;;;;;;;4.30;1.43;;;16.90;99.90;;;;;;5112865;28;20427;-37
2022/10/22 11:38:16;;;;;;;3.97;1.60;;;16.90;99.90;;;;;;5089496;28;20430;-37
2022/10/22 11:40:50;;;;;;;5.60;1.60;;;16.90;99.90;;;;;;5112465;28;20923;-37
2022/10/22 11:43:54;;;;;;;6.67;2.90;;;16.90;99.90;;;;;;5112612;28;20416;-37
2022/10/22 11:46:26;;;;;;;7.07;1.67;;;16.90;99.90;;;;;;5078178;28;20493;-37
2022/10/22 11:49:17;;;;;;;5.30;1.50;;;16.90;99.90;;;;;;5112551;28;20409;-37
2022/10/22 11:51:45;;;;;;;6.20;1.77;;;17.00;99.90;;;;;;5112675;28;20554;-38
2022/10/22 11:54:41;;;;;;;7.13;2.17;;;17.00;99.90;;;;;;5112254;28;20779;-37
2022/10/22 11:57:18;;;;;;;6.37;1.57;;;17.00;99.90;;;;;;5111185;28;20444;-37
2022/10/22 11:59:48;;;;;;;2.93;1.80;;;17.00;99.90;;;;;;5112584;28;20416;-37
2022/10/22 12:02:43;;;;;;;7.10;1.53;;;17.00;99.90;;;;;;5112328;28;20493;-37
2022/10/22 12:05:21;;;;;;;5.10;1.20;;;17.00;99.90;;;;;;5111460;28;20404;-37
2022/10/22 12:07:56;;;;;;;5.23;1.30;;;17.00;99.90;;;;;;5111997;28;20852;-38
2022/10/22 12:10:26;;;;;;;4.03;1.40;;;17.00;99.90;;;;;;5112148;28;20500;-37
2022/10/22 12:12:56;;;;;;;2.50;1.20;;;17.00;99.90;;;;;;5111675;28;20410;-38
2022/10/22 12:15:26;;;;;;;4.80;1.20;;;17.00;99.90;;;;;;5111123;28;20406;-37
2022/10/22 12:18:04;;;;;;;3.93;1.57;;;16.90;99.90;;;;;;5112047;28;20402;-37
2022/10/22 12:20:30;;;;;;;2.87;1.20;;;16.90;99.90;;;;;;5110672;28;20410;-37
2022/10/22 12:22:57;;;;;;;3.43;1.20;;;17.00;99.90;;;;;;5111798;28;20412;-38
2022/10/22 12:25:28;;;;;;;4.40;1.83;;;17.00;99.90;;;;;;5112168;28;20414;-37
2022/10/22 12:27:59;;;;;;;1.90;0.90;;;16.90;99.90;;;;;;5111978;28;20488;-38
2022/10/22 12:30:35;;;;;;;2.83;1.40;;;16.90;99.90;;;;;;5110845;28;20416;-37
2022/10/22 12:33:04;;;;;;;3.97;1.10;;;16.90;99.90;;;;;;5110277;28;20828;-37
2022/10/22 12:35:41;;;;;;;1.47;0.70;;;17.00;99.90;;;;;;5111918;28;20401;-37
2022/10/22 12:38:13;;;;;;;3.90;2.00;;;16.90;99.90;;;;;;5111778;28;20409;-38
2022/10/22 12:40:40;;;;;;;3.93;1.10;;;16.90;99.90;;;;;;5111443;28;20409;-38
2022/10/22 12:43:17;;;;;;;2.73;1.17;;;16.90;99.90;;;;;;5111340;28;20413;-36
2022/10/22 12:45:46;;;;;;;5.27;1.20;;;17.00;99.90;;;;;;5111586;28;20401;-37
2022/10/22 12:48:34;;;;;;;5.70;1.30;;;17.00;99.90;;;;;;5111341;28;20409;-37
2022/10/22 12:51:03;;;;;;;3.80;1.23;;;17.00;99.90;;;;;;5110276;28;20398;-37
2022/10/22 12:53:34;;;;;;;3.53;1.10;;;17.00;99.90;;;;;;5111180;28;20417;-37
2022/10/22 12:56:06;;;;;;;4.70;1.10;;;17.10;99.90;;;;;;5110407;28;21256;-37
2022/10/22 12:59:06;;;;;;;2.77;1.30;;;17.10;99.90;;;;;;5109872;28;20448;-37
2022/10/22 13:01:35;;;;;;;2.57;1.40;;;17.10;99.90;;;;;;5110639;28;20552;-38
2022/10/22 13:04:19;;;;;;;6.13;1.70;;;17.10;99.90;;;;;;5109721;28;20412;-37
2022/10/22 13:07:03;;;;;;;3.33;1.60;;;17.10;99.90;;;;;;5110811;28;20465;-37
2022/10/22 13:09:38;;;;;;;2.90;1.13;;;17.00;99.90;;;;;;5110977;28;20402;-37